Time;durP1;ratioP1;P1;durP2;ratioP2;P2;SDS_P1;SDS_P2;PMS_P1;PMS_P2;Temp;Humidity;BMP_temperature;BMP_pressure;BME280_temperature;BME280_humidity;BME280_pressure;Samples;Min_cycle;Max_cycle;Signal;HPM_P1;HPM_P2
2022/12/13 00:01:51;;;;;;;30.15;23.83;;;-7.00;99.90;;;;;;5054469;28;20029;-78
2022/12/13 00:04:18;;;;;;;26.37;21.33;;;-7.00;99.90;;;;;;5053458;28;20065;-78
2022/12/13 00:06:44;;;;;;;26.23;21.97;;;-7.00;99.90;;;;;;5050685;28;20512;-78
2022/12/13 00:09:16;;;;;;;31.30;21.30;;;-7.00;99.90;;;;;;5050681;28;20022;-78
2022/12/13 00:11:42;;;;;;;27.83;22.27;;;-7.10;99.90;;;;;;5049651;28;20017;-78
2022/12/13 00:14:10;;;;;;;27.80;21.33;;;-7.10;99.90;;;;;;5050601;28;20045;-78
2022/12/13 00:16:36;;;;;;;33.93;21.77;;;-7.10;99.90;;;;;;5050899;28;20101;-78
2022/12/13 00:19:02;;;;;;;31.53;23.43;;;-7.00;99.90;;;;;;5033730;28;20108;-78
2022/12/13 00:21:30;;;;;;;22.97;20.60;;;-7.10;99.90;;;;;;5051087;28;20026;-78
2022/12/13 00:23:57;;;;;;;29.63;20.03;;;-7.10;99.90;;;;;;5050882;28;20018;-78
2022/12/13 00:26:27;;;;;;;28.87;21.23;;;-7.10;99.90;;;;;;5046374;28;20022;-78
2022/12/13 00:28:53;;;;;;;22.35;19.45;;;-7.20;99.90;;;;;;5031172;28;20088;-78
2022/12/13 00:31:21;;;;;;;31.87;21.30;;;-7.20;99.90;;;;;;5031472;28;20072;-79
2022/12/13 00:33:47;;;;;;;25.00;20.50;;;-7.30;99.90;;;;;;5030047;28;20057;-79
2022/12/13 00:36:14;;;;;;;33.13;21.60;;;-7.30;99.90;;;;;;5033207;28;20081;-78
2022/12/13 00:38:40;;;;;;;26.37;21.97;;;-7.30;99.90;;;;;;5012542;28;20022;-78
2022/12/13 00:41:15;;;;;;;22.77;20.33;;;-7.30;99.90;;;;;;5032920;28;20026;-78
2022/12/13 00:43:41;;;;;;;31.67;19.30;;;-7.30;99.90;;;;;;5035214;28;20041;-79
2022/12/13 00:46:20;;;;;;;25.27;22.60;;;-7.40;99.90;;;;;;5035159;28;20006;-79
2022/12/13 00:48:54;;;;;;;31.40;21.57;;;-7.70;99.90;;;;;;5033121;28;20039;-79
2022/12/13 00:51:22;;;;;;;28.47;20.30;;;-7.60;99.90;;;;;;5017605;28;20030;-79
2022/12/13 00:53:48;;;;;;;22.47;20.13;;;;;;;;;;5034533;28;20052;-79
2022/12/13 00:56:17;;;;;;;30.30;21.27;;;-7.60;99.90;;;;;;5026114;28;20029;-79
2022/12/13 00:58:42;;;;;;;33.40;20.00;;;-7.60;99.90;;;;;;5050531;28;20538;-78
2022/12/13 01:01:11;;;;;;;34.00;21.27;;;-7.60;99.90;;;;;;5033920;28;20022;-79
2022/12/13 01:03:38;;;;;;;18.80;15.77;;;-7.60;99.90;;;;;;5033675;28;20057;-78
2022/12/13 01:06:12;;;;;;;25.10;19.87;;;-7.60;99.90;;;;;;5037244;28;20049;-78
2022/12/13 01:08:37;;;;;;;25.60;20.20;;;-7.70;99.90;;;;;;5054532;28;20037;-78
2022/12/13 01:11:05;;;;;;;30.10;20.27;;;-7.70;99.90;;;;;;5041235;28;20041;-78
2022/12/13 01:13:31;;;;;;;27.60;19.83;;;-7.70;99.90;;;;;;5034166;28;20088;-78
2022/12/13 01:15:57;;;;;;;27.67;20.30;;;-7.80;99.90;;;;;;5034090;28;20106;-78
2022/12/13 01:18:23;;;;;;;25.47;18.80;;;-7.80;99.90;;;;;;5035431;28;20026;-78
2022/12/13 01:20:59;;;;;;;27.47;21.37;;;-7.80;99.90;;;;;;5001535;28;20064;-78
2022/12/13 01:23:25;;;;;;;23.90;19.40;;;-7.80;99.90;;;;;;5033791;28;20030;-78
2022/12/13 01:25:52;;;;;;;31.87;21.93;;;-7.90;99.90;;;;;;5032942;28;20491;-78
2022/12/13 01:28:18;;;;;;;32.43;20.93;;;-7.90;99.90;;;;;;5033089;28;20038;-78
2022/12/13 01:30:54;;;;;;;23.97;21.03;;;-7.90;99.90;;;;;;5032874;28;20038;-78
2022/12/13 01:33:20;;;;;;;30.03;23.00;;;-8.00;99.90;;;;;;5032077;28;20034;-78
2022/12/13 01:35:45;;;;;;;28.20;22.27;;;-8.00;99.90;;;;;;5016535;28;20029;-78
2022/12/13 01:38:11;;;;;;;30.33;23.90;;;-7.90;99.90;;;;;;5016287;28;20033;-78
2022/12/13 01:41:00;;;;;;;34.00;28.53;;;-8.00;99.90;;;;;;5031951;28;20037;-77
2022/12/13 01:43:53;;;;;;;32.03;25.35;;;-8.00;99.90;;;;;;5031979;28;20094;-78
2022/12/13 01:46:19;;;;;;;27.50;22.07;;;-8.00;99.90;;;;;;5031695;28;20053;-78
2022/12/13 01:49:12;;;;;;;26.47;20.00;;;-7.90;99.90;;;;;;5033131;28;20034;-78
2022/12/13 01:51:44;;;;;;;29.60;22.50;;;-8.00;99.90;;;;;;5034519;28;20033;-78
2022/12/13 01:54:14;;;;;;;26.50;18.57;;;-8.00;99.90;;;;;;5021031;28;20034;-78
2022/12/13 01:56:46;;;;;;;25.97;20.40;;;-8.00;99.90;;;;;;5054099;28;20033;-79
2022/12/13 01:59:14;;;;;;;30.97;20.60;;;-8.10;99.90;;;;;;5036171;28;20029;-78
2022/12/13 02:01:40;;;;;;;24.97;18.23;;;-8.00;99.90;;;;;;5035310;28;20033;-78
2022/12/13 02:04:07;;;;;;;30.60;20.30;;;-8.10;99.90;;;;;;5034067;28;20125;-79
2022/12/13 02:06:40;;;;;;;29.27;20.30;;;-8.10;99.90;;;;;;5034827;28;20026;-78
2022/12/13 02:09:07;;;;;;;25.10;19.93;;;-8.10;99.90;;;;;;5038104;28;20030;-78
2022/12/13 02:11:35;;;;;;;24.93;19.40;;;-8.10;99.90;;;;;;5052903;28;20033;-78
2022/12/13 02:14:01;;;;;;;24.77;19.67;;;-8.10;99.90;;;;;;5052299;28;20179;-77
2022/12/13 02:16:51;;;;;;;27.33;18.30;;;-8.20;99.90;;;;;;5053452;28;20029;-78
2022/12/13 02:19:36;;;;;;;23.10;20.67;;;-8.20;99.90;;;;;;5053389;28;20020;-78
2022/12/13 02:22:31;;;;;;;21.50;18.30;;;-8.30;99.90;;;;;;5051473;28;20053;-78
2022/12/13 02:25:03;;;;;;;25.37;18.77;;;-8.20;99.90;;;;;;5033940;28;20030;-77
2022/12/13 02:28:05;;;;;;;27.97;21.83;;;-8.10;99.90;;;;;;5051003;28;20030;-78
2022/12/13 02:30:40;;;;;;;27.80;20.53;;;-8.20;99.90;;;;;;5050823;28;20048;-77
2022/12/13 02:33:11;;;;;;;20.33;18.20;;;-8.10;99.90;;;;;;5033548;28;20029;-78
2022/12/13 02:35:45;;;;;;;25.20;19.97;;;-8.30;99.90;;;;;;5050525;28;20031;-78
2022/12/13 02:38:34;;;;;;;26.93;18.50;;;-8.30;99.90;;;;;;5049408;28;20098;-79
2022/12/13 02:41:18;;;;;;;24.80;17.60;;;-8.30;99.90;;;;;;5036649;28;20120;-79
2022/12/13 02:43:54;;;;;;;33.73;19.40;;;-8.30;99.90;;;;;;5049193;28;20067;-79
2022/12/13 02:46:23;;;;;;;27.93;19.50;;;-8.20;99.90;;;;;;5031621;28;20029;-78
2022/12/13 02:48:53;;;;;;;28.33;20.33;;;-8.20;99.90;;;;;;5048254;28;20025;-78
2022/12/13 02:51:20;;;;;;;;;;;-8.30;99.90;;;;;;5047871;28;20030;-78
2022/12/13 02:53:46;;;;;;;24.87;17.57;;;-8.30;99.90;;;;;;5046998;28;19920;-78
2022/12/13 02:56:13;;;;;;;30.63;19.90;;;-8.30;99.90;;;;;;5046594;28;20037;-78
2022/12/13 02:58:44;;;;;;;24.60;17.20;;;-8.40;99.90;;;;;;5029797;28;20025;-79
2022/12/13 03:01:30;;;;;;;20.93;18.27;;;-8.40;99.90;;;;;;5046494;28;20105;-79
2022/12/13 03:03:55;;;;;;;27.27;19.50;;;-8.40;99.90;;;;;;5046606;28;20055;-78
2022/12/13 03:06:43;;;;;;;27.73;21.50;;;-8.40;99.90;;;;;;5046147;28;20033;-78
2022/12/13 03:09:23;;;;;;;23.50;19.33;;;-8.40;99.90;;;;;;5045664;28;20052;-79
2022/12/13 03:15:29;;;;;;;29.17;22.63;;;-8.30;99.90;;;;;;5045634;28;20029;-77
2022/12/13 03:18:14;;;;;;;27.73;20.40;;;-8.30;99.90;;;;;;5046902;28;20060;-77
2022/12/13 03:20:49;;;;;;;23.87;20.33;;;-8.30;99.90;;;;;;5028584;28;20024;-78
2022/12/13 03:23:17;;;;;;;33.17;21.77;;;-8.40;99.90;;;;;;5045417;28;20442;-77
2022/12/13 03:25:45;;;;;;;25.93;20.47;;;-8.40;99.90;;;;;;5046960;28;20026;-77
2022/12/13 03:28:11;;;;;;;29.63;19.10;;;-8.30;99.90;;;;;;5046358;28;20116;-77
2022/12/13 03:30:37;;;;;;;32.47;21.60;;;-8.30;99.90;;;;;;5045533;28;20061;-77
2022/12/13 03:33:03;;;;;;;29.63;19.60;;;-8.40;99.90;;;;;;5047652;28;20439;-77
2022/12/13 03:35:30;;;;;;;23.90;21.23;;;-8.40;99.90;;;;;;5036422;28;20085;-77
2022/12/13 03:37:56;;;;;;;24.30;19.50;;;-8.40;99.90;;;;;;5030622;28;20026;-77
2022/12/13 03:40:23;;;;;;;21.20;18.83;;;-8.50;99.90;;;;;;5030111;28;20058;-77
2022/12/13 03:42:50;;;;;;;25.53;20.37;;;-8.50;99.90;;;;;;5013729;28;20093;-77
2022/12/13 03:45:17;;;;;;;23.50;17.63;;;-8.50;99.90;;;;;;5030570;28;20049;-77
2022/12/13 03:47:43;;;;;;;20.00;17.67;;;-8.50;99.90;;;;;;5029340;28;20050;-76
2022/12/13 03:50:09;;;;;;;23.60;20.97;;;-8.60;99.90;;;;;;5029550;28;20038;-77
2022/12/13 03:52:35;;;;;;;21.13;18.80;;;-8.60;99.90;;;;;;5044114;28;20040;-76
2022/12/13 03:55:00;;;;;;;25.60;18.83;;;-8.50;99.90;;;;;;5050118;28;20026;-77
2022/12/13 03:57:28;;;;;;;24.70;19.73;;;-8.50;99.90;;;;;;5043742;28;20022;-77
2022/12/13 03:59:55;;;;;;;23.33;17.57;;;-8.60;99.90;;;;;;5013391;28;20077;-77
2022/12/13 04:02:21;;;;;;;26.77;18.03;;;-8.60;99.90;;;;;;5028731;28;20038;-76
2022/12/13 04:04:46;;;;;;;21.57;19.17;;;-8.60;99.90;;;;;;5028563;28;20054;-77
2022/12/13 04:07:12;;;;;;;28.90;21.23;;;-8.60;99.90;;;;;;5026362;28;20037;-76
2022/12/13 04:09:38;;;;;;;20.17;17.87;;;-8.60;99.90;;;;;;5032853;28;20060;-79
2022/12/13 04:14:48;;;;;;;25.47;19.37;;;-8.70;99.90;;;;;;5048417;28;20026;-77
2022/12/13 04:17:14;;;;;;;22.20;19.27;;;-8.60;99.90;;;;;;5032677;28;20044;-79
2022/12/13 04:19:41;;;;;;;19.87;17.30;;;-8.70;99.90;;;;;;5040440;28;20396;-77
2022/12/13 04:22:07;;;;;;;20.23;18.17;;;;;;;;;;5037345;28;20373;-78
2022/12/13 04:24:33;;;;;;;17.77;15.87;;;;;;;;;;5040196;28;20089;-78
2022/12/13 04:27:01;;;;;;;27.20;20.27;;;-8.80;99.90;;;;;;5037497;28;20038;-76
2022/12/13 04:29:27;;;;;;;30.83;19.87;;;-8.70;99.90;;;;;;5037413;28;20021;-79
2022/12/13 04:31:53;;;;;;;35.77;18.30;;;;;;;;;;5023924;28;20408;-78
2022/12/13 04:34:19;;;;;;;23.57;19.17;;;;;;;;;;5021179;28;20053;-76
2022/12/13 04:36:45;;;;;;;31.53;20.33;;;-8.30;99.90;;;;;;5034283;28;20026;-78
2022/12/13 04:39:11;;;;;;;29.57;20.17;;;-8.60;99.90;;;;;;5020851;28;20052;-78
2022/12/13 04:41:37;;;;;;;29.93;18.57;;;-8.50;99.90;;;;;;5043819;28;20044;-78
2022/12/13 04:44:06;;;;;;;19.87;17.80;;;-8.50;99.90;;;;;;5052473;28;20032;-79
2022/12/13 04:46:32;;;;;;;24.00;19.97;;;-8.30;99.90;;;;;;5050836;28;20040;-79
2022/12/13 04:48:58;;;;;;;33.17;22.57;;;;;;;;;;5034296;28;20033;-79
2022/12/13 04:51:24;;;;;;;26.27;18.90;;;-8.10;99.90;;;;;;5037291;28;20553;-78
2022/12/13 04:53:50;;;;;;;29.50;19.57;;;;;;;;;;5038755;28;20025;-76
2022/12/13 04:56:16;;;;;;;23.40;19.30;;;-7.90;99.90;;;;;;5038095;28;20050;-77
2022/12/13 04:58:43;;;;;;;26.70;21.40;;;-7.80;99.90;;;;;;5038848;28;20484;-77
2022/12/13 05:01:10;;;;;;;24.60;20.43;;;-7.60;99.90;;;;;;5039554;28;20033;-77
2022/12/13 05:03:38;;;;;;;25.47;20.83;;;-7.50;99.90;;;;;;5025524;28;20050;-79
2022/12/13 05:06:09;;;;;;;26.13;18.77;;;-7.60;99.90;;;;;;5025213;28;20555;-79
2022/12/13 05:08:36;;;;;;;27.47;20.80;;;-7.60;99.90;;;;;;5038503;28;20033;-79
2022/12/13 05:11:03;;;;;;;29.87;22.37;;;-7.40;99.90;;;;;;5035635;28;20025;-79
2022/12/13 05:13:29;;;;;;;29.83;21.23;;;-7.20;99.90;;;;;;5020838;28;20062;-79
2022/12/13 05:15:56;;;;;;;28.07;23.10;;;-7.00;99.90;;;;;;5034604;28;20037;-80
2022/12/13 05:18:22;;;;;;;40.63;25.03;;;-6.70;99.90;;;;;;5042854;28;20109;-78
2022/12/13 05:20:49;;;;;;;28.33;22.57;;;-6.80;99.90;;;;;;5022888;28;20022;-78
2022/12/13 05:23:17;;;;;;;25.40;22.03;;;-6.80;99.90;;;;;;5009620;28;20029;-79
2022/12/13 05:25:42;;;;;;;29.43;23.33;;;-6.80;99.90;;;;;;5023587;28;20033;-76
2022/12/13 05:28:08;;;;;;;34.50;22.23;;;-6.70;99.90;;;;;;5045710;28;20111;-78
2022/12/13 05:30:39;;;;;;;25.77;22.17;;;-6.80;99.90;;;;;;5036916;28;20108;-80
2022/12/13 05:33:05;;;;;;;25.77;21.33;;;-7.10;99.90;;;;;;5039735;28;20435;-76
2022/12/13 05:35:32;;;;;;;34.17;24.90;;;-7.00;99.90;;;;;;5046673;28;20018;-77
2022/12/13 05:37:57;;;;;;;28.30;20.90;;;-7.10;99.90;;;;;;5022146;28;20022;-77
2022/12/13 05:40:27;;;;;;;27.37;21.73;;;-7.30;99.90;;;;;;5026319;28;20025;-76
2022/12/13 05:42:53;;;;;;;26.20;21.87;;;-7.50;99.90;;;;;;5046633;28;20026;-79
2022/12/13 05:45:22;;;;;;;27.67;21.00;;;-7.40;99.90;;;;;;5024265;28;20021;-77
2022/12/13 05:47:48;;;;;;;28.35;19.80;;;-7.40;99.90;;;;;;5025726;28;20038;-79
2022/12/13 05:50:16;;;;;;;24.20;20.93;;;-7.50;99.90;;;;;;5042928;28;20366;-78
2022/12/13 05:52:44;;;;;;;29.17;21.33;;;-7.60;99.90;;;;;;5027370;28;20026;-78
2022/12/13 05:55:11;;;;;;;25.97;21.10;;;-7.50;99.90;;;;;;5029265;28;20100;-79
2022/12/13 05:57:40;;;;;;;25.10;22.33;;;-7.40;99.90;;;;;;5015350;28;20378;-79
2022/12/13 06:00:08;;;;;;;27.35;20.17;;;-7.40;99.90;;;;;;5032084;28;20021;-78
2022/12/13 06:02:42;;;;;;;43.77;24.17;;;-7.60;99.90;;;;;;5044740;28;20034;-77
2022/12/13 06:05:09;;;;;;;26.87;20.37;;;-7.30;99.90;;;;;;5028573;28;20054;-76
2022/12/13 06:07:36;;;;;;;29.97;22.47;;;;;;;;;;5034570;28;20026;-76
2022/12/13 06:10:05;;;;;;;26.77;23.37;;;-7.80;99.90;;;;;;5026187;28;20104;-77
2022/12/13 06:12:33;;;;;;;27.58;23.35;;;-7.90;99.90;;;;;;5042138;28;20025;-79
2022/12/13 06:14:59;;;;;;;30.80;23.57;;;-8.00;99.90;;;;;;5028697;28;20022;-78
2022/12/13 06:17:25;;;;;;;37.13;24.70;;;;;;;;;;5026727;28;20029;-79
2022/12/13 06:19:52;;;;;;;36.23;25.73;;;;;;;;;;5039188;28;20037;-76
2022/12/13 06:22:18;;;;;;;39.83;28.87;;;-8.00;99.90;;;;;;5025671;28;20472;-76
2022/12/13 06:24:44;;;;;;;35.37;26.67;;;-8.10;99.90;;;;;;5043573;28;20116;-78
2022/12/13 06:27:09;;;;;;;47.60;29.70;;;-8.20;99.90;;;;;;5021955;28;20089;-76
2022/12/13 06:29:36;;;;;;;40.17;30.17;;;;;;;;;;5040786;28;20030;-77
2022/12/13 06:32:02;;;;;;;34.27;28.90;;;-8.20;99.90;;;;;;5025303;28;20026;-77
2022/12/13 06:34:33;;;;;;;33.47;25.43;;;-8.20;99.90;;;;;;5021253;28;20033;-77
2022/12/13 06:37:01;;;;;;;30.53;26.40;;;-8.20;99.90;;;;;;5043502;28;20043;-77
2022/12/13 06:39:28;;;;;;;33.17;26.50;;;-6.80;99.90;;;;;;5044489;28;20102;-77
2022/12/13 06:41:55;;;;;;;28.30;25.37;;;-8.20;99.90;;;;;;5022227;28;20025;-77
2022/12/13 06:44:21;;;;;;;31.13;25.40;;;-8.20;99.90;;;;;;5028172;28;20091;-76
2022/12/13 06:46:46;;;;;;;30.00;24.17;;;-8.20;99.90;;;;;;5017376;28;20026;-79
2022/12/13 06:49:12;;;;;;;24.47;21.80;;;-8.20;99.90;;;;;;5042077;28;20040;-77
2022/12/13 06:51:38;;;;;;;28.60;25.63;;;-8.20;99.90;;;;;;5042434;28;20384;-79
2022/12/13 06:54:04;;;;;;;41.73;27.70;;;-8.20;99.90;;;;;;5026588;28;20033;-79
2022/12/13 06:56:31;;;;;;;35.80;26.40;;;-8.10;99.90;;;;;;5027480;28;20030;-79
2022/12/13 06:58:58;;;;;;;34.63;26.10;;;-7.80;99.90;;;;;;5042123;28;20033;-78
2022/12/13 07:01:24;;;;;;;26.10;23.33;;;-8.10;99.90;;;;;;5045292;28;20093;-76
2022/12/13 07:03:54;;;;;;;32.50;23.97;;;-8.20;99.90;;;;;;5029181;28;20132;-78
2022/12/13 07:06:22;;;;;;;30.52;23.23;;;-8.20;99.90;;;;;;5044406;28;20037;-77
2022/12/13 07:08:53;;;;;;;30.23;22.80;;;-7.50;99.90;;;;;;5032139;28;20049;-77
2022/12/13 07:11:22;;;;;;;41.63;25.50;;;-8.10;99.90;;;;;;5051324;28;20041;-77
2022/12/13 07:13:48;;;;;;;34.45;25.67;;;-8.10;99.90;;;;;;5031544;28;20075;-77
2022/12/13 07:16:14;;;;;;;33.93;28.67;;;-7.80;99.90;;;;;;5015527;28;20022;-76
2022/12/13 07:18:40;;;;;;;45.30;27.40;;;-7.60;99.90;;;;;;5043683;28;20049;-76
2022/12/13 07:21:08;;;;;;;35.33;27.40;;;-7.50;99.90;;;;;;5036970;28;20064;-78
2022/12/13 07:23:34;;;;;;;34.40;27.93;;;-7.20;99.90;;;;;;5049407;28;20033;-79
2022/12/13 07:26:01;;;;;;;35.60;30.47;;;;;;;;;;5049594;28;20036;-76
2022/12/13 07:28:27;;;;;;;41.47;28.90;;;-7.10;99.90;;;;;;5049349;28;20029;-76
2022/12/13 07:30:53;;;;;;;37.87;30.57;;;;;;;;;;5047967;28;20041;-77
2022/12/13 07:33:19;;;;;;;39.80;32.47;;;-6.80;99.90;;;;;;5031518;28;20061;-78
2022/12/13 07:35:44;;;;;;;35.03;30.43;;;-6.70;99.90;;;;;;5031068;28;20036;-78
2022/12/13 07:38:11;;;;;;;40.77;30.23;;;-5.00;99.90;;;;;;5049222;28;20022;-78
2022/12/13 07:40:39;;;;;;;47.13;33.27;;;-6.50;99.90;;;;;;5049327;28;20415;-78
2022/12/13 07:43:05;;;;;;;35.70;32.10;;;;;;;;;;5031356;28;20033;-77
2022/12/13 07:45:32;;;;;;;47.87;33.90;;;;;;;;;;5048967;28;20060;-77
2022/12/13 07:48:02;;;;;;;40.80;32.60;;;-6.50;99.90;;;;;;5047855;28;20033;-78
2022/12/13 07:50:28;;;;;;;49.73;34.70;;;;;;;;;;5030866;28;20026;-77
2022/12/13 07:52:54;;;;;;;38.80;30.83;;;-6.40;99.90;;;;;;5047171;28;20033;-77
2022/12/13 07:55:20;;;;;;;45.67;35.53;;;-6.40;99.90;;;;;;5047877;28;20030;-77
2022/12/13 07:57:46;;;;;;;49.90;36.97;;;-6.40;99.90;;;;;;5048626;28;20025;-77
2022/12/13 08:00:12;;;;;;;45.57;34.70;;;-6.40;99.90;;;;;;5048785;28;20451;-77
2022/12/13 08:02:41;;;;;;;53.72;38.00;;;-6.20;99.90;;;;;;5048715;28;20033;-77
2022/12/13 08:05:07;;;;;;;44.87;36.57;;;-5.50;99.90;;;;;;5047199;28;20079;-77
2022/12/13 08:07:33;;;;;;;52.67;35.17;;;-5.90;99.90;;;;;;5046934;28;20029;-77
2022/12/13 08:09:59;;;;;;;56.40;38.37;;;-5.90;99.90;;;;;;5030871;28;20056;-77
2022/12/13 08:12:25;;;;;;;53.53;37.75;;;;;;;;;;5048393;28;20042;-77
2022/12/13 08:14:51;;;;;;;63.97;41.88;;;-5.20;99.90;;;;;;5048476;28;20025;-77
2022/12/13 08:17:17;;;;;;;66.28;44.72;;;;;;;;;;5031002;28;20026;-78
2022/12/13 08:19:44;;;;;;;58.05;44.70;;;-4.60;99.90;;;;;;5046036;28;20034;-78
2022/12/13 08:22:13;;;;;;;55.00;44.42;;;-4.70;99.90;;;;;;5046628;28;20029;-77
2022/12/13 08:24:39;;;;;;;60.53;41.78;;;-4.50;99.90;;;;;;5047276;28;20025;-77
2022/12/13 08:27:07;;;;;;;57.55;41.25;;;-4.20;99.90;;;;;;5030507;28;20029;-77
2022/12/13 08:29:34;;;;;;;51.63;41.80;;;;;;;;;;5047148;28;20030;-77
2022/12/13 08:32:02;;;;;;;47.05;38.58;;;-4.00;99.90;;;;;;5048042;28;20023;-78
2022/12/13 08:34:28;;;;;;;44.75;33.53;;;-2.20;99.90;;;;;;5048313;28;20133;-77
2022/12/13 08:36:55;;;;;;;49.70;38.50;;;;;;;;;;5046677;28;20029;-77
2022/12/13 08:39:21;;;;;;;59.83;42.65;;;;;;;;;;5048055;28;20025;-77
2022/12/13 08:41:47;;;;;;;54.78;40.22;;;;;;;;;;5046689;28;20500;-78
2022/12/13 08:44:13;;;;;;;52.78;38.45;;;;;;;;;;5048208;28;20034;-77
2022/12/13 08:46:39;;;;;;;51.17;39.67;;;;;;;;;;5048062;28;20040;-77
2022/12/13 08:49:05;;;;;;;44.80;37.13;;;;;;;;;;5047742;28;20043;-77
2022/12/13 08:51:31;;;;;;;50.95;36.75;;;;;;;;;;5047529;28;20077;-77
2022/12/13 08:53:58;;;;;;;63.47;42.80;;;;;;;;;;5047888;28;20032;-78
2022/12/13 08:56:24;;;;;;;44.58;36.42;;;;;;;;;;5047502;28;20089;-77
2022/12/13 08:58:50;;;;;;;52.08;39.25;;;;;;;;;;5047465;28;20049;-78
2022/12/13 09:01:18;;;;;;;71.28;44.03;;;-3.80;99.90;;;;;;5047632;28;20037;-77
2022/12/13 09:03:44;;;;;;;55.75;37.85;;;;;;;;;;5047439;28;20538;-77
2022/12/13 09:06:13;;;;;;;66.80;44.65;;;-3.70;99.90;;;;;;5047444;28;20055;-79
2022/12/13 09:08:39;;;;;;;61.60;44.97;;;;;;;;;;5047579;28;20032;-77
2022/12/13 09:11:06;;;;;;;68.53;49.47;;;-3.20;99.90;;;;;;5047503;28;20111;-77
2022/12/13 09:13:33;;;;;;;62.78;45.42;;;-3.00;99.90;;;;;;5047014;28;20029;-78
2022/12/13 09:16:10;;;;;;;73.30;49.95;;;-2.10;99.90;;;;;;5047461;28;20030;-78
2022/12/13 09:18:36;;;;;;;66.20;49.78;;;;;;;;;;5047463;28;20021;-78
2022/12/13 09:21:10;;;;;;;73.97;48.50;;;-2.40;99.90;;;;;;5045970;28;20361;-77
2022/12/13 09:23:37;;;;;;;68.65;48.08;;;-2.70;99.90;;;;;;5047189;28;20033;-77
2022/12/13 09:26:03;;;;;;;70.75;48.42;;;;;;;;;;5047123;28;20029;-78
2022/12/13 09:28:29;;;;;;;55.70;44.38;;;;;;;;;;5046665;28;20400;-78
2022/12/13 09:30:56;;;;;;;53.60;38.67;;;;;;;;;;5046814;28;20079;-77
2022/12/13 09:33:24;;;;;;;54.40;40.00;;;;;;;;;;5046995;28;20075;-77
2022/12/13 09:35:51;;;;;;;66.93;44.15;;;0.50;99.90;;;;;;5047027;28;20037;-78
2022/12/13 09:38:18;;;;;;;53.67;38.25;;;;;;;;;;5046953;28;20032;-77
2022/12/13 09:40:48;;;;;;;56.90;37.58;;;1.50;99.90;;;;;;5045641;28;20033;-77
2022/12/13 09:43:30;;;;;;;43.92;34.58;;;2.00;99.90;;;;;;5046667;28;20515;-78
2022/12/13 09:45:57;;;;;;;45.08;34.72;;;3.00;99.90;;;;;;5046801;28;20104;-78
2022/12/13 09:48:23;;;;;;;54.15;36.88;;;;;;;;;;5045417;28;20037;-78
2022/12/13 09:50:50;;;;;;;41.00;31.00;;;4.90;99.90;;;;;;5046639;28;20029;-78
2022/12/13 09:53:19;;;;;;;43.70;29.80;;;;;;;;;;5046635;28;20050;-78
2022/12/13 09:55:48;;;;;;;35.67;26.75;;;4.50;99.90;;;;;;5046388;28;20025;-78
2022/12/13 09:58:23;;;;;;;40.17;30.65;;;4.10;99.90;;;;;;5046301;28;20530;-78
2022/12/13 10:00:52;;;;;;;38.92;28.00;;;2.70;99.90;;;;;;5046557;28;20037;-78
2022/12/13 10:03:20;;;;;;;48.65;32.13;;;2.00;99.90;;;;;;5046110;28;20049;-78
2022/12/13 10:05:57;;;;;;;44.17;30.10;;;2.30;99.90;;;;;;5046266;28;20092;-78
2022/12/13 10:08:34;;;;;;;39.15;27.23;;;2.80;99.90;;;;;;5046430;28;20037;-78
2022/12/13 10:11:00;;;;;;;32.47;26.65;;;;;;;;;;5042901;28;20033;-78
2022/12/13 10:13:35;;;;;;;31.30;27.77;;;2.80;99.90;;;;;;5046009;28;20037;-78
2022/12/13 10:16:10;;;;;;;36.72;28.30;;;3.10;99.90;;;;;;5046156;28;20099;-78
2022/12/13 10:18:39;;;;;;;29.40;26.25;;;3.50;99.90;;;;;;5046269;28;20155;-78
2022/12/13 10:21:27;;;;;;;34.53;27.35;;;3.70;99.90;;;;;;5046213;28;20033;-78
2022/12/13 10:23:54;;;;;;;36.55;27.52;;;;;;;;;;5046267;28;20488;-78
2022/12/13 10:26:20;;;;;;;39.40;27.90;;;;;;;;;;5046079;28;20496;-78
2022/12/13 10:28:46;;;;;;;31.52;26.42;;;;;;;;;;5045742;28;20025;-78
2022/12/13 10:31:17;;;;;;;33.15;26.92;;;4.20;99.90;;;;;;5045809;28;20029;-78
2022/12/13 10:33:53;;;;;;;30.63;25.20;;;4.20;99.90;;;;;;5046183;28;20040;-78
2022/12/13 10:36:37;;;;;;;33.22;23.70;;;4.20;99.90;;;;;;5044694;28;20026;-78
2022/12/13 10:39:03;;;;;;;29.55;24.42;;;;;;;;;;5045972;28;20021;-79
2022/12/13 10:41:33;;;;;;;31.15;24.67;;;3.70;99.90;;;;;;5046012;28;20021;-78
2022/12/13 10:44:08;;;;;;;36.13;25.15;;;3.60;99.90;;;;;;5044691;28;20076;-78
2022/12/13 10:46:34;;;;;;;28.15;25.10;;;;;;;;;;5045935;28;20022;-79
2022/12/13 10:49:00;;;;;;;33.80;25.35;;;;;;;;;;5045885;28;20057;-78
2022/12/13 10:51:27;;;;;;;32.95;23.10;;;;;;;;;;5046212;28;20021;-79
2022/12/13 10:53:57;;;;;;;44.75;28.30;;;0.60;99.90;;;;;;5045795;28;20036;-79
2022/12/13 10:56:34;;;;;;;25.83;18.88;;;0.20;99.90;;;;;;5027989;28;20128;-79
2022/12/13 10:59:21;;;;;;;44.42;34.72;;;1.50;99.90;;;;;;5045660;28;20045;-79
2022/12/13 11:01:47;;;;;;;30.55;27.10;;;;;;;;;;5045732;28;20025;-79
2022/12/13 11:04:30;;;;;;;34.05;30.35;;;0.20;99.90;;;;;;5045295;28;20049;-79
2022/12/13 11:07:00;;;;;;;39.90;27.50;;;-0.10;99.90;;;;;;5045947;28;20021;-79
2022/12/13 11:09:28;;;;;;;;;;;-0.30;99.90;;;;;;5046448;28;20147;-78
2022/12/13 11:11:57;;;;;;;36.03;28.55;;;0.40;99.90;;;;;;5045673;28;19996;-79
2022/12/13 11:14:27;;;;;;;37.63;26.58;;;0.30;99.90;;;;;;5045460;28;20033;-79
2022/12/13 11:16:58;;;;;;;45.15;36.92;;;1.20;99.90;;;;;;5045828;28;20040;-79
2022/12/13 11:19:34;;;;;;;38.38;31.65;;;0.00;99.90;;;;;;5045059;28;20030;-78
2022/12/13 11:22:00;;;;;;;33.15;29.60;;;;;;;;;;5045513;28;20408;-79
2022/12/13 11:24:31;;;;;;;38.67;26.67;;;0.80;99.90;;;;;;5045435;28;20048;-78
2022/12/13 11:27:39;;;;;;;35.45;26.00;;;1.50;99.90;;;;;;5045641;28;20033;-78
2022/12/13 11:30:16;;;;;;;28.88;22.67;;;1.60;99.90;;;;;;5044094;28;20053;-78
2022/12/13 11:32:56;;;;;;;29.70;25.40;;;2.40;99.90;;;;;;5044906;28;20033;-79
2022/12/13 11:35:26;;;;;;;;;;;2.30;99.90;;;;;;5045952;28;20022;-78
2022/12/13 11:38:11;;;;;;;29.52;25.08;;;2.70;99.90;;;;;;5045445;28;19909;-78
2022/12/13 11:40:55;;;;;;;30.60;24.33;;;4.10;99.90;;;;;;5045222;28;20049;-78
2022/12/13 11:43:47;;;;;;;30.83;25.42;;;2.30;99.90;;;;;;5045156;28;20396;-78
2022/12/13 11:46:18;;;;;;;29.88;25.02;;;1.20;99.90;;;;;;5045399;28;20057;-78
2022/12/13 11:48:55;;;;;;;26.92;22.27;;;1.10;99.90;;;;;;5044950;28;20438;-79
2022/12/13 11:51:34;;;;;;;30.25;23.65;;;1.30;99.90;;;;;;5045255;28;20029;-78
2022/12/13 11:54:16;;;;;;;30.48;24.70;;;1.40;99.90;;;;;;5046049;28;20053;-78
2022/12/13 11:56:43;;;;;;;27.83;21.92;;;1.20;99.90;;;;;;5048774;28;20025;-79
2022/12/13 11:59:21;;;;;;;31.48;22.98;;;1.20;99.90;;;;;;5048779;28;20048;-78
2022/12/13 12:01:54;;;;;;;30.80;22.50;;;0.90;99.90;;;;;;5048702;28;20152;-78
2022/12/13 12:04:33;;;;;;;33.10;24.48;;;1.50;99.90;;;;;;5048659;28;20104;-78
2022/12/13 12:07:44;;;;;;;27.20;24.23;;;1.20;99.90;;;;;;5048730;28;20036;-78
2022/12/13 12:10:34;;;;;;;23.25;20.58;;;0.70;99.90;;;;;;5046518;28;20087;-79
2022/12/13 12:13:16;;;;;;;29.92;23.50;;;1.10;99.90;;;;;;5048642;28;20029;-78
2022/12/13 12:15:51;;;;;;;31.33;22.58;;;0.60;99.90;;;;;;5048618;28;20483;-79
2022/12/13 12:18:17;;;;;;;35.67;23.27;;;;;;;;;;5048005;28;20037;-78
2022/12/13 12:21:04;;;;;;;25.88;21.77;;;0.40;99.90;;;;;;5047996;28;20029;-78
2022/12/13 12:23:51;;;;;;;35.13;23.15;;;0.30;99.90;;;;;;5047381;28;20061;-78
2022/12/13 12:26:20;;;;;;;25.80;22.60;;;0.30;99.90;;;;;;5048404;28;20033;-78
2022/12/13 12:28:46;;;;;;;29.73;23.77;;;;;;;;;;5048315;28;20484;-77
2022/12/13 12:31:39;;;;;;;27.25;22.50;;;0.40;99.90;;;;;;5048057;28;20029;-78
2022/12/13 12:34:42;;;;;;;29.42;23.50;;;0.40;99.90;;;;;;5047955;28;20045;-78
2022/12/13 12:37:08;;;;;;;28.05;21.25;;;;;;;;;;5048134;28;20026;-77
2022/12/13 12:39:43;;;;;;;26.35;22.23;;;0.80;99.90;;;;;;5048264;28;20112;-78
2022/12/13 12:42:36;;;;;;;26.15;22.38;;;0.90;99.90;;;;;;5048035;28;20033;-78
2022/12/13 12:45:30;;;;;;;22.48;19.45;;;0.90;99.90;;;;;;5048037;28;20025;-78
2022/12/13 12:48:26;;;;;;;32.05;22.20;;;0.90;99.90;;;;;;5047586;28;20110;-78
2022/12/13 12:50:52;;;;;;;33.83;21.40;;;;;;;;;;5036312;28;20036;-78
2022/12/13 12:53:49;;;;;;;24.83;22.17;;;0.90;99.90;;;;;;5046848;28;20037;-78
2022/12/13 12:56:15;;;;;;;22.52;18.40;;;;;;;;;;5041952;28;20041;-78
2022/12/13 12:58:56;;;;;;;25.40;18.85;;;0.90;99.90;;;;;;5047819;28;20025;-78
2022/12/13 13:01:31;;;;;;;23.90;21.38;;;0.90;99.90;;;;;;5047804;28;20026;-78
2022/12/13 13:04:02;;;;;;;25.48;21.63;;;0.60;99.90;;;;;;5047410;28;20049;-78
2022/12/13 13:06:35;;;;;;;25.50;20.95;;;0.60;99.90;;;;;;5046772;28;20104;-78
2022/12/13 13:09:05;;;;;;;27.40;21.40;;;0.60;99.90;;;;;;5041511;28;20114;-78
2022/12/13 13:11:33;;;;;;;;;;;2.10;99.90;;;;;;5047605;28;20511;-78